createdAt,value
2019-04-05T03:07:17.593Z,19.3
2019-04-05T03:08:07.851Z,19.3
2019-04-05T03:09:12.871Z,19.2
2019-04-05T03:09:48.291Z,19.1
2019-04-05T03:10:38.570Z,19.1
2019-04-05T03:11:28.126Z,19.1
2019-04-05T03:12:21.186Z,19.1
2019-04-05T03:13:08.515Z,19.1
2019-04-05T03:13:58.608Z,19.1
2019-04-05T03:14:47.963Z,19.1
2019-04-05T03:15:38.177Z,19.1
2019-04-05T03:16:47.739Z,19
2019-04-05T03:17:18.231Z,18.9
2019-04-05T03:18:08.656Z,18.9
2019-04-05T03:18:58.769Z,18.9
2019-04-05T03:19:48.475Z,18.9
2019-04-05T03:20:38.710Z,18.8
2019-04-05T03:21:28.878Z,18.8
2019-04-05T03:24:49.301Z,18.6
2019-04-05T03:25:39.567Z,18.6
2019-04-05T03:26:29.513Z,18.5
2019-04-05T03:27:33.610Z,18.4
2019-04-05T03:28:09.533Z,18.2
2019-04-05T03:28:59.612Z,18.1
2019-04-05T03:29:49.110Z,18
2019-04-05T03:30:40.441Z,18
2019-04-05T03:31:36.132Z,18
2019-04-05T03:32:19.949Z,18
2019-04-05T03:33:09.949Z,18
2019-04-05T03:34:00.621Z,18
2019-04-05T03:34:51.321Z,18
2019-04-05T03:35:40.330Z,18
2019-04-05T03:36:28.910Z,17.9
2019-04-05T03:37:19.435Z,17.9
2019-04-05T03:38:09.985Z,17.9
2019-04-05T03:38:59.355Z,17.9
2019-04-05T03:39:50.678Z,17.9
2019-04-05T03:40:40.063Z,17.9
2019-04-05T03:41:29.735Z,17.9
2019-04-05T03:42:20.064Z,17.9
2019-04-05T03:43:09.171Z,17.8
2019-04-05T03:44:00.366Z,17.8
2019-04-05T03:44:50.282Z,17.8
2019-04-05T03:45:40.222Z,17.8
2019-04-05T03:46:29.969Z,17.8
2019-04-05T03:47:20.954Z,17.7
2019-04-05T03:48:10.400Z,17.7
2019-04-05T03:49:01.655Z,17.7
2019-04-05T03:49:50.373Z,17.6
2019-04-05T03:50:40.261Z,17.6
2019-04-05T03:51:30.082Z,17.6
2019-04-05T03:52:21.125Z,17.6
2019-04-05T03:53:11.289Z,17.6
2019-04-05T03:54:01.992Z,17.5
2019-04-05T03:54:51.510Z,17.5
2019-04-05T03:55:41.064Z,17.4
2019-04-05T03:56:31.419Z,17.4
2019-04-05T03:57:21.689Z,17.4
2019-04-05T03:58:10.831Z,17.4
2019-04-05T03:59:00.995Z,17.4
2019-04-05T03:59:50.787Z,17.4
2019-04-05T04:00:42.276Z,17.3
2019-04-05T04:01:31.510Z,17.3
2019-04-05T04:02:25.424Z,17.3
2019-04-05T04:03:11.331Z,17.3
2019-04-05T04:04:00.867Z,17.3
2019-04-05T04:05:06.278Z,17.2
2019-04-05T04:05:41.443Z,17.2
2019-04-05T04:06:31.582Z,17.2
2019-04-05T04:07:21.520Z,17.1
2019-04-05T04:08:11.948Z,17.1
2019-04-05T04:09:00.821Z,17.1
2019-04-05T04:09:52.408Z,17.1
2019-04-05T04:10:42.138Z,17.1
2019-04-05T04:11:32.207Z,17.1
2019-04-05T04:14:52.132Z,16.9
2019-04-05T04:15:43.070Z,16.9
2019-04-05T04:16:32.539Z,16.9
2019-04-05T04:17:21.640Z,16.9
2019-04-05T04:18:12.643Z,16.9
2019-04-05T04:19:03.658Z,16.9
2019-04-05T04:19:53.100Z,16.8
2019-04-05T04:20:43.289Z,16.8
2019-04-05T04:21:32.503Z,16.8
2019-04-05T04:22:22.803Z,16.8
2019-04-05T04:23:13.636Z,16.8
2019-04-05T04:24:04.112Z,16.8
2019-04-05T04:24:53.375Z,16.8
2019-04-05T04:25:42.777Z,16.7
2019-04-05T04:26:33.640Z,16.7
2019-04-05T04:27:22.123Z,16.7
2019-04-05T04:28:14.136Z,16.6
2019-04-05T04:29:04.557Z,16.6
2019-04-05T04:29:53.453Z,16.6
2019-04-05T04:30:43.758Z,16.6
2019-04-05T04:31:34.694Z,16.6
2019-04-05T04:32:25.144Z,16.6
2019-04-05T04:33:14.926Z,16.5
2019-04-05T04:34:04.922Z,16.6
2019-04-05T04:34:54.387Z,16.5
2019-04-05T04:35:59.696Z,16.5
2019-04-05T04:36:34.223Z,16.4
2019-04-05T04:37:24.554Z,16.5
2019-04-05T04:38:15.140Z,16.4
2019-04-05T04:39:04.605Z,16.4
2019-04-05T04:39:55.101Z,16.4
2019-04-05T04:40:45.056Z,16.4
2019-04-05T04:41:39.471Z,16.4
2019-04-05T04:42:25.676Z,16.3
2019-04-05T04:43:14.974Z,16.3
2019-04-05T04:44:05.674Z,16.3
2019-04-05T04:44:55.841Z,16.3
2019-04-05T04:45:44.864Z,16.3
2019-04-05T04:46:35.657Z,16.3
2019-04-05T04:47:37.048Z,16.3
2019-04-05T04:48:15.903Z,16.3
2019-04-05T04:49:05.906Z,16.3
2019-04-05T04:49:55.892Z,16.2
2019-04-05T04:50:45.361Z,16.2
2019-04-05T04:51:35.927Z,16.2
2019-04-05T04:52:40.662Z,16.2
2019-04-05T04:53:15.800Z,16.2
2019-04-05T04:54:05.880Z,16.1
2019-04-05T04:54:56.182Z,16.1
2019-04-05T04:55:46.308Z,16.1
2019-04-05T04:56:36.012Z,16.1
2019-04-05T04:57:26.383Z,16.1
2019-04-05T04:58:29.283Z,16.1
2019-04-05T04:59:05.476Z,16.1
2019-04-05T04:59:55.812Z,16.1
2019-04-05T05:00:46.119Z,16
2019-04-05T05:01:35.957Z,16
2019-04-05T05:02:27.060Z,16
2019-04-05T05:03:16.072Z,16
2019-04-05T05:04:09.844Z,16
2019-04-05T05:04:56.813Z,15.9
2019-04-05T05:05:46.735Z,15.9
2019-04-05T05:06:36.499Z,15.9
2019-04-05T05:07:27.094Z,15.9
2019-04-05T05:08:16.632Z,15.9
2019-04-05T05:09:07.271Z,15.9
2019-04-05T05:09:56.817Z,15.9
2019-04-05T05:10:46.557Z,15.9
2019-04-05T05:11:35.532Z,15.9
2019-04-05T05:12:25.858Z,15.9
2019-04-05T05:13:16.581Z,15.9
2019-04-05T05:14:07.097Z,15.8
2019-04-05T05:14:55.563Z,15.8
2019-04-05T05:15:46.960Z,15.8
2019-04-05T05:16:35.789Z,15.8
2019-04-05T05:17:40.630Z,15.8
2019-04-05T05:18:16.373Z,15.8
2019-04-05T05:19:06.638Z,15.8
2019-04-05T05:19:56.776Z,15.8
2019-04-05T05:20:48.652Z,15.8
2019-04-05T05:21:36.611Z,15.8
2019-04-05T05:22:27.442Z,15.8
2019-04-05T05:23:17.054Z,15.8
2019-04-05T05:24:07.620Z,15.7
2019-04-05T05:24:57.866Z,15.7
2019-04-05T05:25:51.254Z,15.7
2019-04-05T05:26:38.518Z,15.7
2019-04-05T05:27:28.080Z,15.7
2019-04-05T05:28:18.611Z,15.7
2019-04-05T05:29:07.980Z,15.6
2019-04-05T05:29:57.719Z,15.6
2019-04-05T05:30:48.500Z,15.6
2019-04-05T05:31:38.263Z,15.6
2019-04-05T05:32:27.798Z,15.6
2019-04-05T05:33:18.198Z,15.6
2019-04-05T05:34:07.923Z,15.6
2019-04-05T05:35:12.038Z,15.6
2019-04-05T05:35:48.863Z,15.6
2019-04-05T05:36:38.928Z,15.6
2019-04-05T05:37:28.187Z,15.6
2019-04-05T05:38:34.016Z,15.6
2019-04-05T05:39:09.793Z,15.6
2019-04-05T05:39:59.155Z,15.6
2019-04-05T05:40:49.505Z,15.6
2019-04-05T05:41:39.615Z,15.5
2019-04-05T05:42:29.067Z,15.6
2019-04-05T05:43:19.975Z,15.5
2019-04-05T05:44:10.076Z,15.5
2019-04-05T05:44:59.030Z,15.5
2019-04-05T05:45:49.385Z,15.5
2019-04-05T05:46:40.147Z,15.5
2019-04-05T05:47:29.812Z,15.5
2019-04-05T05:48:19.022Z,15.5
2019-04-05T05:49:09.894Z,15.4
2019-04-05T05:49:59.634Z,15.4
2019-04-05T05:50:49.617Z,15.4
2019-04-05T05:51:40.624Z,15.4
2019-04-05T05:52:30.309Z,15.4
2019-04-05T05:53:19.078Z,15.4
2019-04-05T05:54:10.540Z,15.4
2019-04-05T05:54:59.059Z,15.4
2019-04-05T05:55:49.860Z,15.4
2019-04-05T05:56:39.730Z,15.4
2019-04-05T05:57:30.209Z,15.4
2019-04-05T05:58:20.476Z,15.4
2019-04-05T05:59:10.342Z,15.4
2019-04-05T06:00:05.141Z,15.4
2019-04-05T06:00:50.968Z,15.4
2019-04-05T06:01:40.186Z,15.4
2019-04-05T06:02:30.347Z,15.4
2019-04-05T06:05:16.778Z,15.3
2019-04-05T06:06:13.753Z,15.3
2019-04-05T06:06:57.855Z,15.3
2019-04-05T06:07:47.480Z,15.3
2019-04-05T06:08:39.136Z,15.3
2019-04-05T06:09:27.028Z,15.3
2019-04-05T06:10:18.792Z,15.3
2019-04-05T06:11:07.716Z,15.3
2019-04-05T06:11:58.862Z,15.3
2019-04-05T06:12:48.013Z,15.3
2019-04-05T06:13:39.163Z,15.3
2019-04-05T06:14:29.344Z,15.3
2019-04-05T06:15:18.192Z,15.3
2019-04-05T06:16:09.411Z,15.3
2019-04-05T06:17:14.088Z,15.3
2019-04-05T06:17:49.029Z,15.3
2019-04-05T06:18:39.526Z,15.3
2019-04-05T06:19:29.385Z,15.3
2019-04-05T06:20:18.661Z,15.3
2019-04-05T06:21:12.455Z,15.3
2019-04-05T06:21:59.492Z,15.2
2019-04-05T06:22:51.473Z,15.2
2019-04-05T06:23:43.452Z,15.2
2019-04-05T06:24:29.968Z,15.3
2019-04-05T06:25:20.360Z,15.2
2019-04-05T06:26:09.929Z,15.3
2019-04-05T06:26:59.606Z,15.2
2019-04-05T06:27:49.917Z,15.2
2019-04-05T06:28:41.276Z,15.2
2019-04-05T06:29:29.810Z,15.2
2019-04-05T06:30:19.612Z,15.2
2019-04-05T06:31:10.297Z,15.2
2019-04-05T06:32:00.259Z,15.2
2019-04-05T06:32:49.801Z,15.2
2019-04-05T06:33:45.037Z,15.2
2019-04-05T06:34:44.242Z,15.2
2019-04-05T06:35:19.890Z,15.1
2019-04-05T06:36:09.999Z,15.2
2019-04-05T06:37:00.907Z,15.2
2019-04-05T06:37:50.197Z,15.2
2019-04-05T06:38:39.329Z,15.1
2019-04-05T06:39:30.294Z,15.1
2019-04-05T06:40:20.047Z,15.1
2019-04-05T06:41:10.767Z,15.2
2019-04-05T06:42:00.354Z,15.1
2019-04-05T06:42:50.979Z,15.1
2019-04-05T06:43:40.271Z,15.1
2019-04-05T06:44:33.946Z,15.1
2019-04-05T06:45:20.721Z,15.1
2019-04-05T06:46:13.146Z,15.1
2019-04-05T06:47:00.671Z,15.1
2019-04-05T06:47:51.352Z,15.1
2019-04-05T06:48:41.797Z,15.1
2019-04-05T06:49:31.499Z,15.1
2019-04-05T06:50:20.689Z,15.1
2019-04-05T06:51:11.120Z,15.1
2019-04-05T06:52:01.129Z,15.1
2019-04-05T06:53:06.343Z,15.1
2019-04-05T06:53:41.493Z,15.1
2019-04-05T06:54:32.292Z,15.1
2019-04-05T06:55:22.212Z,15.1
2019-04-05T06:56:11.695Z,15.1
2019-04-05T06:57:02.020Z,15.1
2019-04-05T06:57:52.735Z,15.1
2019-04-05T06:58:46.031Z,15.1
2019-04-05T06:59:31.958Z,15.1
2019-04-05T07:00:22.173Z,15.1
2019-04-05T07:02:02.632Z,15.1
2019-04-05T07:02:52.246Z,15.1
2019-04-05T07:05:20.775Z,15
2019-04-05T07:06:07.791Z,15.1
2019-04-05T07:06:58.130Z,15.1
2019-04-05T07:07:48.633Z,15.1
2019-04-05T07:08:38.050Z,15
2019-04-05T07:09:27.730Z,15
2019-04-05T07:10:18.607Z,15.1
2019-04-05T07:11:08.768Z,15
2019-04-05T07:11:58.522Z,15.1
2019-04-05T07:12:48.086Z,15
2019-04-05T07:13:38.518Z,15.1
2019-04-05T07:14:29.199Z,15
2019-04-05T07:15:18.240Z,15
2019-04-05T07:16:11.677Z,15
2019-04-05T07:16:58.814Z,15
2019-04-05T07:17:49.427Z,15
2019-04-05T07:18:45.299Z,15
2019-04-05T07:19:29.319Z,15
2019-04-05T07:20:19.189Z,15
2019-04-05T07:21:08.626Z,15
2019-04-05T07:21:59.489Z,15
2019-04-05T07:22:48.813Z,15
2019-04-05T07:23:39.312Z,15
2019-04-05T07:24:29.433Z,15
2019-04-05T07:25:19.706Z,15
2019-04-05T07:26:09.445Z,15
2019-04-05T07:26:59.074Z,15
2019-04-05T07:27:49.886Z,15
2019-04-05T07:28:39.691Z,15
2019-04-05T07:29:30.338Z,15
2019-04-05T07:30:20.053Z,15
2019-04-05T07:31:09.649Z,15
2019-04-05T07:31:59.378Z,15
2019-04-05T07:32:49.973Z,15
2019-04-05T07:33:39.495Z,14.9
2019-04-05T07:34:29.876Z,15
2019-04-05T07:35:34.758Z,15
2019-04-05T07:36:13.173Z,15
2019-04-05T07:37:00.603Z,14.9
2019-04-05T07:37:50.586Z,15
2019-04-05T07:38:40.118Z,15
2019-04-05T07:39:30.535Z,14.9
2019-04-05T07:40:20.298Z,15
2019-04-05T07:41:10.648Z,14.9
2019-04-05T07:42:00.413Z,14.9
2019-04-05T07:42:51.015Z,14.9
2019-04-05T07:43:41.321Z,14.9
2019-04-05T07:44:30.530Z,14.9
2019-04-05T07:45:21.003Z,14.9
2019-04-05T07:46:10.938Z,14.9
2019-04-05T07:47:01.058Z,14.9
2019-04-05T07:47:51.070Z,14.9
2019-04-05T07:48:54.732Z,14.9
2019-04-05T07:49:31.242Z,14.9
2019-04-05T07:50:21.226Z,14.9
2019-04-05T07:51:11.850Z,14.9
2019-04-05T07:52:01.635Z,14.9
2019-04-05T07:52:51.762Z,14.9
2019-04-05T07:53:42.032Z,14.9
2019-04-05T07:54:30.682Z,14.9
2019-04-05T07:55:21.082Z,14.9
2019-04-05T07:56:11.668Z,14.9
2019-04-05T07:57:01.735Z,14.9
2019-04-05T07:57:52.124Z,14.9
2019-04-05T07:58:41.572Z,14.9
2019-04-05T07:59:32.494Z,14.9
2019-04-05T08:00:36.629Z,14.9
2019-04-05T08:01:12.574Z,14.9
2019-04-05T08:02:02.339Z,14.9
2019-04-05T08:02:52.151Z,14.9
2019-04-05T08:03:41.938Z,14.9
2019-04-05T08:04:31.735Z,14.9
2019-04-05T08:05:22.094Z,14.9
2019-04-05T08:06:12.396Z,14.9
2019-04-05T08:07:03.003Z,14.9
2019-04-05T08:07:52.784Z,14.9
2019-04-05T08:08:43.095Z,14.9
2019-04-05T08:09:32.711Z,14.9
2019-04-05T08:10:25.018Z,14.9
2019-04-05T08:11:12.891Z,14.9
2019-04-05T08:12:03.342Z,14.9
2019-04-05T08:12:53.145Z,14.9
2019-04-05T08:13:42.697Z,14.9
2019-04-05T08:14:33.072Z,14.9
2019-04-05T08:15:23.007Z,14.9
2019-04-05T08:16:13.425Z,14.9
2019-04-05T08:17:03.147Z,14.9
2019-04-05T08:17:52.406Z,14.9
2019-04-05T08:18:42.724Z,14.9
2019-04-05T08:19:33.470Z,14.9
2019-04-05T08:20:26.760Z,14.9
2019-04-05T08:21:13.749Z,14.9
2019-04-05T08:22:03.882Z,14.9
2019-04-05T08:22:52.562Z,14.9
2019-04-05T08:23:43.362Z,14.9
2019-04-05T08:24:33.785Z,14.9
2019-04-05T08:25:23.244Z,14.9
2019-04-05T08:26:14.427Z,14.9
2019-04-05T08:27:04.497Z,14.9
2019-04-05T08:27:53.961Z,14.9
2019-04-05T08:28:44.622Z,14.9
2019-04-05T08:29:33.016Z,14.9
2019-04-05T08:30:24.711Z,14.9
2019-04-05T08:31:22.659Z,14.9
2019-04-05T08:32:19.016Z,14.9
2019-04-05T08:32:54.902Z,14.9
2019-04-05T08:33:46.065Z,14.9
2019-04-05T08:34:35.049Z,14.9
2019-04-05T08:35:24.221Z,14.9
2019-04-05T08:36:14.602Z,14.9
2019-04-05T08:37:04.883Z,14.9
2019-04-05T08:37:54.984Z,14.9
2019-04-05T08:38:48.508Z,14.9
2019-04-05T08:39:34.316Z,14.9
2019-04-05T08:40:24.861Z,14.9
2019-04-05T08:41:15.486Z,14.9
2019-04-05T08:42:04.728Z,14.9
2019-04-05T08:42:54.794Z,14.9
2019-04-05T08:43:47.683Z,14.9
2019-04-05T08:44:34.678Z,14.9
2019-04-05T08:45:25.518Z,14.9
2019-04-05T08:46:14.996Z,14.9
2019-04-05T08:47:05.713Z,14.9
2019-04-05T08:47:55.507Z,14.9
2019-04-05T08:48:45.228Z,14.9
2019-04-05T08:49:34.474Z,14.9
2019-04-05T08:50:26.150Z,14.9
2019-04-05T08:51:15.769Z,14.9
2019-04-05T08:52:05.498Z,14.9
2019-04-05T08:52:55.274Z,14.9
2019-04-05T08:53:45.817Z,14.9
2019-04-05T08:54:45.325Z,14.9
2019-04-05T08:55:26.254Z,14.9
2019-04-05T08:56:15.935Z,14.9
2019-04-05T08:57:06.097Z,14.9
2019-04-05T08:57:57.134Z,14.9
2019-04-05T08:58:46.218Z,14.9
2019-04-05T08:59:36.065Z,14.9
2019-04-05T09:00:26.390Z,14.9
2019-04-05T09:01:16.780Z,14.9
2019-04-05T09:02:06.517Z,14.9
2019-04-05T09:02:59.293Z,14.9
2019-04-05T09:03:46.398Z,14.9
2019-04-05T09:04:35.525Z,14.9
2019-04-05T09:05:26.140Z,14.9
2019-04-05T09:06:16.460Z,14.9
2019-04-05T09:07:06.812Z,14.9
2019-04-05T09:07:56.974Z,14.9
2019-04-05T09:08:47.030Z,14.9
2019-04-05T09:09:37.042Z,14.9
2019-04-05T09:10:25.856Z,14.9
2019-04-05T09:11:16.446Z,14.9
2019-04-05T09:12:06.631Z,14.9
2019-04-05T09:12:57.796Z,14.9
2019-04-05T09:13:47.792Z,14.9
2019-04-05T09:14:37.130Z,14.9
2019-04-05T09:15:26.857Z,14.9
2019-04-05T09:16:21.012Z,14.9
2019-04-05T09:17:07.787Z,14.9
2019-04-05T09:17:57.084Z,14.9
2019-04-05T09:18:50.212Z,14.9
2019-04-05T09:19:37.067Z,14.9
2019-04-05T09:20:27.371Z,14.9
2019-04-05T09:21:22.941Z,14.9
2019-04-05T09:22:06.831Z,14.9
2019-04-05T09:22:57.178Z,14.9
2019-04-05T09:23:47.855Z,14.9
2019-04-05T09:24:37.258Z,14.9
2019-04-05T09:25:28.939Z,14.9
2019-04-05T09:26:17.917Z,14.9
2019-04-05T09:27:08.536Z,14.9
2019-04-05T09:27:57.898Z,14.9
2019-04-05T09:28:47.681Z,14.9
2019-04-05T09:29:38.250Z,14.9
2019-04-05T09:30:28.751Z,14.9
2019-04-05T09:31:18.654Z,14.9
2019-04-05T09:32:23.266Z,14.9
2019-04-05T09:32:58.218Z,14.9
2019-04-05T09:33:48.756Z,14.8
2019-04-05T09:34:38.940Z,14.8
2019-04-05T09:35:28.622Z,14.8
2019-04-05T09:36:19.250Z,14.8
2019-04-05T09:37:08.163Z,14.8
2019-04-05T09:37:58.005Z,14.9
2019-04-05T09:38:49.163Z,14.9
2019-04-05T09:39:39.445Z,14.8
2019-04-05T09:40:30.009Z,14.9
2019-04-05T09:41:19.277Z,14.8
2019-04-05T09:42:09.122Z,14.8
2019-04-05T09:42:59.212Z,14.8
2019-04-05T09:43:49.859Z,14.8
2019-04-05T09:44:39.104Z,14.8
2019-04-05T09:45:29.591Z,14.8
2019-04-05T09:46:20.205Z,14.8
2019-04-05T09:47:09.141Z,14.8
2019-04-05T09:48:00.035Z,14.8
2019-04-05T09:48:50.387Z,14.8
2019-04-05T09:49:46.417Z,14.8
2019-04-05T09:50:29.444Z,14.8
2019-04-05T09:51:20.150Z,14.8
2019-04-05T09:52:08.766Z,14.8
2019-04-05T09:52:58.564Z,14.8
2019-04-05T09:53:49.444Z,14.8
2019-04-05T09:54:40.317Z,14.8
2019-04-05T09:55:30.085Z,14.8
2019-04-05T09:56:18.770Z,14.8
2019-04-05T09:57:10.522Z,14.8
2019-04-05T09:58:00.202Z,14.7
2019-04-05T09:58:50.587Z,14.7
2019-04-05T09:59:40.017Z,14.7
2019-04-05T10:00:31.241Z,14.7
2019-04-05T10:01:20.197Z,14.7
2019-04-05T10:02:11.143Z,14.7
2019-04-05T10:03:00.669Z,14.7
2019-04-05T10:03:50.714Z,14.6
2019-04-05T10:07:56.938Z,14.6
2019-04-05T10:09:01.447Z,14.7
2019-04-05T10:10:07.834Z,14.7
2019-04-05T10:11:51.514Z,14.7
2019-04-05T12:06:17.737Z,14.8
2019-04-05T12:07:07.584Z,14.9
2019-04-05T12:08:06.487Z,14.9
2019-04-05T12:08:47.454Z,14.9
2019-04-05T12:09:38.262Z,14.9
2019-04-05T12:10:31.947Z,14.9
2019-04-05T12:11:18.434Z,14.9
2019-04-05T12:12:07.199Z,14.9
2019-04-05T12:12:58.002Z,14.9
2019-04-05T12:13:51.812Z,14.9
2019-04-05T12:14:44.521Z,14.9
2019-04-05T12:15:28.732Z,14.9
2019-04-05T12:16:20.152Z,14.9
2019-04-05T12:17:16.037Z,14.9
2019-04-05T12:17:57.503Z,14.9
2019-04-05T12:18:48.719Z,14.9
2019-04-05T12:19:44.799Z,14.9
2019-04-05T12:20:30.725Z,14.9
2019-04-05T12:21:21.811Z,14.9
2019-04-05T12:22:16.559Z,14.9
2019-04-05T12:23:02.719Z,14.9
2019-04-05T12:23:48.856Z,14.9
2019-04-05T12:24:42.162Z,14.9
2019-04-05T12:25:31.770Z,14.9
2019-04-05T12:26:18.883Z,14.9
2019-04-05T12:27:14.497Z,14.9
2019-04-05T12:28:17.516Z,14.9
2019-04-05T12:28:48.601Z,14.9
2019-04-05T12:29:39.178Z,14.9
2019-04-05T12:30:28.969Z,14.9
2019-04-05T12:31:20.141Z,14.9
2019-04-05T12:32:09.443Z,14.9
2019-04-05T12:33:19.090Z,14.9
2019-04-05T12:33:57.471Z,14.9
2019-04-05T12:34:39.556Z,14.9
2019-04-05T12:35:32.171Z,14.9
2019-04-05T12:36:22.808Z,14.9
2019-04-05T12:37:10.548Z,14.9
2019-04-05T12:38:08.037Z,14.9
2019-04-05T12:38:50.383Z,14.9
2019-04-05T12:39:45.071Z,14.9
2019-04-05T12:40:30.766Z,14.9
2019-04-05T12:41:23.906Z,14.9
2019-04-05T12:42:15.222Z,14.9
2019-04-05T12:43:02.428Z,14.9
2019-04-05T12:43:57.018Z,14.9
2019-04-05T12:44:39.980Z,14.9
2019-04-05T12:45:31.125Z,14.9
2019-04-05T12:46:25.650Z,14.9
2019-04-05T12:47:10.177Z,14.9
2019-04-05T12:48:03.977Z,14.9
2019-04-05T12:48:55.475Z,14.9
2019-04-05T12:49:41.417Z,14.9
2019-04-05T12:50:30.105Z,14.9
2019-04-05T12:51:25.739Z,14.9
2019-04-05T12:52:27.509Z,14.9
2019-04-05T12:53:05.395Z,14.9
2019-04-05T12:53:50.727Z,14.9
2019-04-05T12:54:41.252Z,14.9
2019-04-05T12:55:34.222Z,14.9
2019-04-05T12:56:21.084Z,14.9
2019-04-05T12:57:10.989Z,14.9
2019-04-05T12:58:05.129Z,14.9
2019-04-05T12:58:56.703Z,14.9
2019-04-05T12:59:41.919Z,14.9
2019-04-05T13:00:35.582Z,14.9
2019-04-05T13:01:22.059Z,14.9
2019-04-05T13:02:13.663Z,14.9
2019-04-05T13:03:04.446Z,14.9
2019-04-05T13:03:57.256Z,14.9
2019-04-05T13:04:42.435Z,14.9
2019-04-05T13:05:31.841Z,14.9
2019-04-05T13:06:27.221Z,14.9
2019-04-05T13:07:11.918Z,14.9
2019-04-05T13:08:04.032Z,14.9
2019-04-05T13:08:56.501Z,14.9
2019-04-05T13:09:46.647Z,14.9
2019-04-05T13:10:39.325Z,14.9
2019-04-05T13:11:27.796Z,14.9
2019-04-05T13:12:12.443Z,14.9
2019-04-05T13:13:07.579Z,14.9
2019-04-05T13:13:51.825Z,14.9
2019-04-05T13:14:43.261Z,14.9
2019-04-05T13:15:31.429Z,14.9
2019-04-05T13:16:21.998Z,14.9
2019-04-05T13:17:12.413Z,14.9
2019-04-05T13:18:07.286Z,14.9
2019-04-05T13:18:52.806Z,14.9
2019-04-05T13:19:42.846Z,14.9
2019-04-05T13:20:36.856Z,14.9
2019-04-05T13:21:35.395Z,14.9
2019-04-05T13:22:13.001Z,14.9
2019-04-05T13:23:10.296Z,14.9
2019-04-05T13:23:53.036Z,14.9
2019-04-05T13:24:47.950Z,14.9
2019-04-05T13:25:33.345Z,14.9
2019-04-05T13:26:26.145Z,14.9
2019-04-05T13:27:18.692Z,14.9
2019-04-05T13:28:22.562Z,14.9
2019-04-05T13:28:58.510Z,14.9
2019-04-05T13:29:43.937Z,14.9
2019-04-05T13:30:34.258Z,14.9
2019-04-05T13:31:27.850Z,14.9
2019-04-05T13:32:16.878Z,14.9
2019-04-05T13:33:03.549Z,15
2019-04-05T13:33:59.025Z,14.9
2019-04-05T13:34:44.182Z,14.9
2019-04-05T13:35:33.985Z,14.9
2019-04-05T13:36:24.640Z,14.9
2019-04-05T13:37:33.517Z,14.9
2019-04-05T13:38:08.350Z,14.9
2019-04-05T13:39:09.457Z,14.9
2019-04-05T13:39:44.973Z,14.9
2019-04-05T13:40:39.097Z,14.9
2019-04-05T13:41:27.008Z,14.9
2019-04-05T13:42:15.369Z,14.9
2019-04-05T13:43:09.311Z,14.9
2019-04-05T13:43:54.804Z,14.9
2019-04-05T13:44:44.901Z,14.9
2019-04-05T13:45:34.859Z,14.9
2019-04-05T13:46:43.173Z,15
2019-04-05T13:47:18.216Z,14.9
2019-04-05T13:48:09.714Z,14.9
2019-04-05T13:48:55.236Z,14.9
2019-04-05T13:49:50.151Z,14.9
2019-04-05T13:50:34.791Z,15
2019-04-05T13:51:45.793Z,14.9
2019-04-05T13:52:20.541Z,14.9
2019-04-05T13:53:05.274Z,14.9
2019-04-05T13:53:56.224Z,14.9
2019-04-05T13:54:49.526Z,15
2019-04-05T13:55:36.014Z,14.9
2019-04-05T13:56:26.049Z,14.9
2019-04-05T13:57:19.765Z,14.9
2019-04-05T13:58:14.513Z,14.9
2019-04-05T13:58:56.635Z,15
2019-04-05T13:59:48.471Z,14.9
2019-04-05T14:00:36.058Z,15
2019-04-05T14:01:30.861Z,15
2019-04-05T14:02:20.526Z,15
2019-04-05T14:03:06.263Z,14.9
2019-04-05T14:03:59.560Z,14.9
2019-04-05T14:04:46.916Z,15
2019-04-05T14:07:17.685Z,14.9
2019-04-05T14:08:19.970Z,14.9
2019-04-05T14:08:57.267Z,15
2019-04-05T14:09:50.348Z,14.9
2019-04-05T14:10:39.632Z,14.9
2019-04-05T14:11:29.892Z,14.9
2019-04-05T14:12:19.990Z,14.9
2019-04-05T14:13:12.420Z,15
2019-04-05T14:13:57.835Z,15
2019-04-05T14:14:57.590Z,15
2019-04-05T14:15:46.081Z,15
2019-04-05T14:16:28.884Z,14.9
2019-04-05T14:17:23.452Z,15
2019-04-05T14:18:08.747Z,15
2019-04-05T14:18:59.740Z,15
2019-04-05T14:19:52.882Z,15
2019-04-05T14:20:38.331Z,14.9
2019-04-05T14:22:10.138Z,15
2019-04-05T14:22:24.769Z,15
2019-04-05T14:23:10.085Z,15
2019-04-05T14:24:06.741Z,15
2019-04-05T14:24:59.488Z,15
2019-04-05T14:25:41.840Z,15
2019-04-05T14:26:35.768Z,14.9
2019-04-05T14:27:21.501Z,15
2019-04-05T14:28:15.163Z,15
2019-04-05T14:29:06.945Z,14.9
2019-04-05T14:29:55.096Z,14.9
2019-04-05T14:30:43.650Z,15
2019-04-05T14:31:35.850Z,15
2019-04-05T14:32:31.238Z,15
2019-04-05T14:33:12.250Z,15
2019-04-05T14:34:04.392Z,15
2019-04-05T14:34:56.920Z,15
2019-04-05T14:35:42.386Z,15
2019-04-05T14:36:33.130Z,15
2019-04-05T14:37:28.771Z,15
2019-04-05T14:38:16.158Z,15
2019-04-05T14:39:02.913Z,15
2019-04-05T14:39:52.127Z,15
2019-04-05T14:40:43.037Z,15
2019-04-05T14:41:32.772Z,15
2019-04-05T14:42:25.437Z,15
2019-04-05T14:43:17.417Z,15
2019-04-05T14:44:03.482Z,15
2019-04-05T14:44:52.520Z,15
2019-04-05T14:45:42.892Z,15
2019-04-05T14:46:40.763Z,15
2019-04-05T14:47:29.960Z,15
2019-04-05T14:48:12.007Z,15
2019-04-05T14:49:06.752Z,15
2019-04-05T14:49:52.925Z,15
2019-04-05T14:50:43.217Z,15
2019-04-05T14:51:38.324Z,15
2019-04-05T14:52:26.540Z,15
2019-04-05T14:53:13.054Z,15
2019-04-05T14:54:10.817Z,15
2019-04-05T14:54:53.317Z,15
2019-04-05T14:55:43.711Z,15
2019-04-05T14:56:37.839Z,15
2019-04-05T14:57:23.409Z,15
2019-04-05T14:58:21.544Z,15
2019-04-05T14:59:03.802Z,15
2019-04-05T14:59:53.431Z,15
2019-04-05T15:00:49.446Z,15
2019-04-05T15:01:33.698Z,15
2019-04-05T15:02:23.494Z,15
2019-04-05T15:03:14.519Z,15
2019-04-05T15:04:04.483Z,15
2019-04-05T15:04:57.591Z,15
2019-04-05T15:05:44.586Z,15
2019-04-05T15:06:36.310Z,15
2019-04-05T15:07:29.272Z,15
2019-04-05T15:08:14.298Z,15
2019-04-05T15:09:07.568Z,15
2019-04-05T15:09:58.675Z,15
2019-04-05T15:10:44.353Z,15
2019-04-05T15:11:38.766Z,15
2019-04-05T15:12:28.541Z,15
2019-04-05T15:13:14.592Z,15
2019-04-05T15:14:04.056Z,15
2019-04-05T15:14:54.215Z,15.1
2019-04-05T15:15:44.437Z,15.1
2019-04-05T15:16:34.930Z,15.1
2019-04-05T15:17:25.939Z,15.1
2019-04-05T15:18:14.425Z,15.1
2019-04-05T15:19:05.984Z,15.1
2019-04-05T15:19:54.187Z,15.1
2019-04-05T15:20:45.203Z,15.2
2019-04-05T15:21:41.685Z,15.2
2019-04-05T15:22:28.589Z,15.2
2019-04-05T15:23:22.128Z,15.2
2019-04-05T15:24:09.255Z,15.3
2019-04-05T15:24:57.156Z,15.3
2019-04-05T15:25:45.286Z,15.3
2019-04-05T15:26:36.360Z,15.3
2019-04-05T15:27:30.027Z,15.3
2019-04-05T15:28:16.452Z,15.3
2019-04-05T15:29:05.802Z,15.3
2019-04-05T15:29:59.312Z,15.3
2019-04-05T15:30:46.037Z,15.3
2019-04-05T15:31:36.795Z,15.3
2019-04-05T15:32:33.007Z,15.3
2019-04-05T15:33:15.215Z,15.3
2019-04-05T15:34:07.832Z,15.3
2019-04-05T15:35:00.879Z,15.3
2019-04-05T15:35:46.466Z,15.3
2019-04-05T15:36:40.786Z,15.3
2019-04-05T15:37:26.302Z,15.3
2019-04-05T15:38:16.376Z,15.3
2019-04-05T15:39:10.262Z,15.3
2019-04-05T15:39:58.603Z,15.4
2019-04-05T15:40:46.649Z,15.3
2019-04-05T15:41:37.159Z,15.3
2019-04-05T15:42:27.256Z,15.3
2019-04-05T15:43:17.309Z,15.3
2019-04-05T15:44:09.609Z,15.4
2019-04-05T15:44:57.626Z,15.4
2019-04-05T15:45:50.284Z,15.4
2019-04-05T15:46:37.019Z,15.4
2019-04-05T15:47:33.910Z,15.4
2019-04-05T15:48:17.041Z,15.4
2019-04-05T15:49:07.047Z,15.4
2019-04-05T15:50:00.371Z,15.4
2019-04-05T15:50:46.535Z,15.4
2019-04-05T15:51:37.626Z,15.4
2019-04-05T15:52:36.499Z,15.4
2019-04-05T15:53:17.126Z,15.4
2019-04-05T15:54:09.236Z,15.4
2019-04-05T15:54:58.026Z,15.4
2019-04-05T15:55:47.445Z,15.4
2019-04-05T15:56:41.840Z,15.4
2019-04-05T15:57:27.015Z,15.4
2019-04-05T15:58:17.295Z,15.4
2019-04-05T15:59:11.356Z,15.4
2019-04-05T15:59:57.105Z,15.4
2019-04-05T16:00:47.923Z,15.4
2019-04-05T16:01:42.682Z,15.4
2019-04-05T16:02:28.480Z,15.4
2019-04-05T16:03:18.096Z,15.4
2019-04-05T16:04:11.856Z,15.4
2019-04-05T16:04:57.048Z,15.4
2019-04-05T16:07:17.430Z,15.4
2019-04-05T16:08:07.232Z,15.4
2019-04-05T16:08:57.205Z,15.5
2019-04-05T16:09:46.760Z,15.5
2019-04-05T16:10:37.064Z,15.5
2019-04-05T16:11:27.107Z,15.5
2019-04-05T16:12:16.897Z,15.5
2019-04-05T16:13:10.478Z,15.5
2019-04-05T16:13:57.631Z,15.5
2019-04-05T16:14:47.915Z,15.5
2019-04-05T16:15:37.693Z,15.6
2019-04-05T16:16:27.880Z,15.6
2019-04-05T16:17:20.356Z,15.5
2019-04-05T16:18:07.332Z,15.5
2019-04-05T16:19:00.347Z,15.6
2019-04-05T16:19:49.305Z,15.6
2019-04-05T16:20:37.797Z,15.6
2019-04-05T16:21:27.911Z,15.6
2019-04-05T16:22:30.577Z,15.6
2019-04-05T16:23:07.748Z,15.6
2019-04-05T16:23:58.312Z,15.6
2019-04-05T16:24:48.386Z,15.6
2019-04-05T16:25:38.986Z,15.6
2019-04-05T16:26:28.139Z,15.6
2019-04-05T16:27:18.314Z,15.6
2019-04-05T16:28:07.664Z,15.6
2019-04-05T16:28:58.609Z,15.6
2019-04-05T16:29:48.939Z,15.6
2019-04-05T16:30:41.562Z,15.6